Map

Track Data

SID SEASON NUMBER BASIN SUBBASIN NAME ISO_TIME NATURE LAT LON WMO_WIND WMO_PRES WMO_AGENCY TRACK_TYPE DIST2LAND LANDFALL IFLAG USA_AGENCY USA_ATCF_ID USA_LAT USA_LON USA_RECORD USA_STATUS USA_WIND USA_PRES USA_SSHS USA_R34_NE USA_R34_SE USA_R34_SW USA_R34_NW USA_R50_NE USA_R50_SE USA_R50_SW USA_R50_NW USA_R64_NE USA_R64_SE USA_R64_SW USA_R64_NW USA_POCI USA_ROCI USA_RMW USA_EYE TOKYO_LAT TOKYO_LON TOKYO_GRADE TOKYO_WIND TOKYO_PRES TOKYO_R50_DIR TOKYO_R50_LONG TOKYO_R50_SHORT TOKYO_R30_DIR TOKYO_R30_LONG TOKYO_R30_SHORT TOKYO_LAND CMA_LAT CMA_LON CMA_CAT CMA_WIND CMA_PRES HKO_LAT HKO_LON HKO_CAT HKO_WIND HKO_PRES NEWDELHI_LAT NEWDELHI_LON NEWDELHI_GRADE NEWDELHI_WIND NEWDELHI_PRES NEWDELHI_CI NEWDELHI_DP NEWDELHI_POCI REUNION_LAT REUNION_LON REUNION_TYPE REUNION_WIND REUNION_PRES REUNION_TNUM REUNION_CI REUNION_RMW REUNION_R34_NE REUNION_R34_SE REUNION_R34_SW REUNION_R34_NW REUNION_R50_NE REUNION_R50_SE REUNION_R50_SW REUNION_R50_NW REUNION_R64_NE REUNION_R64_SE REUNION_R64_SW REUNION_R64_NW BOM_LAT BOM_LON BOM_TYPE BOM_WIND BOM_PRES BOM_TNUM BOM_CI BOM_RMW BOM_R34_NE BOM_R34_SE BOM_R34_SW BOM_R34_NW BOM_R50_NE BOM_R50_SE BOM_R50_SW BOM_R50_NW BOM_R64_NE BOM_R64_SE BOM_R64_SW BOM_R64_NW BOM_ROCI BOM_POCI BOM_EYE BOM_POS_METHOD BOM_PRES_METHOD NADI_LAT NADI_LON NADI_CAT NADI_WIND NADI_PRES WELLINGTON_LAT WELLINGTON_LON WELLINGTON_WIND WELLINGTON_PRES DS824_LAT DS824_LON DS824_STAGE DS824_WIND DS824_PRES TD9636_LAT TD9636_LON TD9636_STAGE TD9636_WIND TD9636_PRES TD9635_LAT TD9635_LON TD9635_WIND TD9635_PRES TD9635_ROCI NEUMANN_LAT NEUMANN_LON NEUMANN_CLASS NEUMANN_WIND NEUMANN_PRES MLC_LAT MLC_LON MLC_CLASS MLC_WIND MLC_PRES USA_GUST BOM_GUST BOM_GUST_PER REUNION_GUST REUNION_GUST_PER USA_SEAHGT USA_SEARAD_NE USA_SEARAD_SE USA_SEARAD_SW USA_SEARAD_NW STORM_SPEED STORM_DIR
1852001S13076 1852 2 SI MM NOT_NAMED 1852-01-01 06:00:00 NR -12.7000 76.3000 main 2137 2068 __________O___ -1 -12.7000 76.3000 7 15 253
1852001S13076 1852 2 SI MM NOT_NAMED 1852-01-01 09:00:00 NR -12.9128 75.5747 main 2068 1990 __________P___ -1 -12.9128 75.5747 7 15 253
1852001S13076 1852 2 SI MM NOT_NAMED 1852-01-01 12:00:00 NR -13.1196 74.8589 main 1990 1912 __________P___ -1 -13.1196 74.8589 7 14 254
1852001S13076 1852 2 SI MM NOT_NAMED 1852-01-01 15:00:00 NR -13.3166 74.1637 main 1912 1834 __________P___ -1 -13.3166 74.1637 7 14 254
1852001S13076 1852 2 SI MM NOT_NAMED 1852-01-01 18:00:00 NR -13.5000 73.5000 main 1834 1766 __________O___ -1 -13.5000 73.5000 7 13 254
1852001S13076 1852 2 SI MM NOT_NAMED 1852-01-01 21:00:00 NR -13.6689 72.8729 main 1766 1703 __________P___ -1 -13.6689 72.8729 7 12 254
1852001S13076 1852 2 SI MM NOT_NAMED 1852-01-02 00:00:00 NR -13.8334 72.2637 main 1703 1635 __________P___ -1 -13.8334 72.2637 7 12 254
1852001S13076 1852 2 SI MM NOT_NAMED 1852-01-02 03:00:00 NR -14.0063 71.6478 main 1626 1558 __________P___ -1 -14.0063 71.6478 7 13 253
1852001S13076 1852 2 SI MM NOT_NAMED 1852-01-02 06:00:00 NR -14.2000 71.0000 main 1558 1481 __________O___ -1 -14.2000 71.0000 7 14 252
1852001S13076 1852 2 SI MM NOT_NAMED 1852-01-02 09:00:00 NR -14.4366 70.2781 main 1481 1398 __________P___ -1 -14.4366 70.2781 7 15 251
1852001S13076 1852 2 SI MM NOT_NAMED 1852-01-02 12:00:00 NR -14.6925 69.5228 main 1389 1312 __________P___ -1 -14.6925 69.5228 7 16 251
1852001S13076 1852 2 SI MM NOT_NAMED 1852-01-02 15:00:00 NR -14.9521 68.7561 main 1307 1221 __________P___ -1 -14.9521 68.7561 7 16 251
1852001S13076 1852 2 SI MM NOT_NAMED 1852-01-02 18:00:00 NR -15.2000 68.0000 main 1221 1153 __________O___ -1 -15.2000 68.0000 7 15 252
1852001S13076 1852 2 SI MM NOT_NAMED 1852-01-02 21:00:00 NR -15.3924 67.3165 main 1144 1077 __________P___ -1 -15.3924 67.3165 7 14 254
1852001S13076 1852 2 SI MM NOT_NAMED 1852-01-03 00:00:00 NR -15.5751 66.6426 main 1067 1000 __________P___ -1 -15.5751 66.6426 7 14 254
1852001S13076 1852 2 SI MM NOT_NAMED 1852-01-03 03:00:00 NR -15.7703 65.9475 main 991 915 __________P___ -1 -15.7703 65.9475 7 15 253
1852001S13076 1852 2 SI MM NOT_NAMED 1852-01-03 06:00:00 NR -16.0000 65.2000 main 915 825 __________O___ -1 -16.0000 65.2000 7 16 252
1852001S13076 1852 2 SI MM NOT_NAMED 1852-01-03 09:00:00 NR -16.2853 64.3455 main 816 726 __________P___ -1 -16.2853 64.3455 7 18 250
1852001S13076 1852 2 SI MM NOT_NAMED 1852-01-03 12:00:00 NR -16.6055 63.4375 main 717 628 __________P___ -1 -16.6055 63.4375 7 19 249
1852001S13076 1852 2 SI MM NOT_NAMED 1852-01-03 15:00:00 NR -16.9478 62.5107 main 619 524 __________P___ -1 -16.9478 62.5107 7 19 248
1852001S13076 1852 2 SI MM NOT_NAMED 1852-01-03 18:00:00 NR -17.3000 61.6000 main 516 414 __________O___ -1 -17.3000 61.6000 7 19 247
1852001S13076 1852 2 SI MM NOT_NAMED 1852-01-03 21:00:00 NR -17.6753 60.6936 main 414 329 __________P___ -1 -17.6753 60.6936 7 19 246
1852001S13076 1852 2 SI MM NOT_NAMED 1852-01-04 00:00:00 NR -18.0528 59.8167 main 314 234 __________P___ -1 -18.0528 59.8167 7 18 246
1852001S13076 1852 2 SI MM NOT_NAMED 1852-01-04 03:00:00 NR -18.4038 59.0062 main 234 168 __________P___ -1 -18.4038 59.0062 7 16 246
1852001S13076 1852 2 SI MM NOT_NAMED 1852-01-04 06:00:00 NR -18.7000 58.3000 main 168 134 __________O___ -1 -18.7000 58.3000 7 13 248
1852001S13076 1852 2 SI MM NOT_NAMED 1852-01-04 09:00:00 NR -18.8974 57.7322 main 134 123 __________P___ -1 -18.8974 57.7322 7 10 251
1852001S13076 1852 2 SI MM NOT_NAMED 1852-01-04 12:00:00 NR -19.0426 57.2702 main 124 116 __________P___ -1 -19.0426 57.2702 7 9 252
1852001S13076 1852 2 SI MM NOT_NAMED 1852-01-04 15:00:00 NR -19.1666 56.8733 main 118 118 __________P___ -1 -19.1666 56.8733 7 8 251
1852001S13076 1852 2 SI MM NOT_NAMED 1852-01-04 18:00:00 NR -19.3000 56.5000 main 137 137 __________O___ -1 -19.3000 56.5000 7 8 247
1852001S13076 1852 2 SI MM NOT_NAMED 1852-01-04 21:00:00 NR -19.4682 56.1252 main 161 156 __________P___ -1 -19.4682 56.1252 7 8 243
1852001S13076 1852 2 SI MM NOT_NAMED 1852-01-05 00:00:00 NR -19.6533 55.7584 main 145 134 __________P___ -1 -19.6533 55.7584 7 8 241
1852001S13076 1852 2 SI MM NOT_NAMED 1852-01-05 03:00:00 NR -19.8617 55.3624 main 123 105 __________P___ -1 -19.8617 55.3624 7 9 241
1852001S13076 1852 2 SI MM NOT_NAMED 1852-01-05 06:00:00 NR -20.1000 54.9000 main 108 103 __________O___ -1 -20.1000 54.9000 7 11 244
1852001S13076 1852 2 SI MM NOT_NAMED 1852-01-05 09:00:00 NR -20.3516 54.3135 main 121 121 __________P___ -1 -20.3516 54.3135 7 13 245
1852001S13076 1852 2 SI MM NOT_NAMED 1852-01-05 12:00:00 NR -20.6334 53.6594 main 165 165 __________P___ -1 -20.6334 53.6594 7 14 245
1852001S13076 1852 2 SI MM NOT_NAMED 1852-01-05 15:00:00 NR -20.9483 52.9756 main 229 229 __________P___ -1 -20.9483 52.9756 7 14 242
1852001S13076 1852 2 SI MM NOT_NAMED 1852-01-05 18:00:00 NR -21.3000 52.3000 main 301 301 __________O___ -1 -21.3000 52.3000 7 14 240
1852001S13076 1852 2 SI MM NOT_NAMED 1852-01-05 21:00:00 NR -21.6769 51.6413 main 340 289 __________P___ -1 -21.6769 51.6413 7 14 237
1852001S13076 1852 2 SI MM NOT_NAMED 1852-01-06 00:00:00 NR -22.0903 51.0030 main 289 239 __________P___ -1 -22.0903 51.0030 7 14 233
1852001S13076 1852 2 SI MM NOT_NAMED 1852-01-06 03:00:00 NR -22.5334 50.4132 main 239 212 __________P___ -1 -22.5334 50.4132 7 14 228
1852001S13076 1852 2 SI MM NOT_NAMED 1852-01-06 06:00:00 NR -23.0000 49.9000 main 212 182 __________O___ -1 -23.0000 49.9000 7 13 223
1852001S13076 1852 2 SI MM NOT_NAMED 1852-01-06 09:00:00 NR -23.4694 49.4548 main 183 153 __________P___ -1 -23.4694 49.4548 7 12 218
1852001S13076 1852 2 SI MM NOT_NAMED 1852-01-06 12:00:00 NR -23.9615 49.0921 main 157 139 __________P___ -1 -23.9615 49.0921 7 12 210
1852001S13076 1852 2 SI MM NOT_NAMED 1852-01-06 15:00:00 NR -24.4729 48.8083 main 143 138 __________P___ -1 -24.4729 48.8083 7 11 203
1852001S13076 1852 2 SI MM NOT_NAMED 1852-01-06 18:00:00 NR -25.0000 48.6000 main 142 142 __________O___ -1 -25.0000 48.6000 7 12 197
1852001S13076 1852 2 SI MM NOT_NAMED 1852-01-06 21:00:00 NR -25.5920 48.4359 main 146 146 __________P___ -1 -25.5920 48.4359 7 12 191
1852001S13076 1852 2 SI MM NOT_NAMED 1852-01-07 00:00:00 NR -26.1894 48.3438 main 179 179 __________P___ -1 -26.1894 48.3438 7 12 186
1852001S13076 1852 2 SI MM NOT_NAMED 1852-01-07 03:00:00 NR -26.7422 48.3049 main 220 220 __________P___ -1 -26.7422 48.3049 7 10 182
1852001S13076 1852 2 SI MM NOT_NAMED 1852-01-07 06:00:00 NR -27.2000 48.3000 main 268 268 __________O___ -1 -27.2000 48.3000 7 8 0
1852001S13076 1852 2 SI MM NOT_NAMED 1852-01-07 09:00:00 NR -27.5086 48.2917 main 297 297 __________P___ -1 -27.5086 48.2917 7 5 177
1852001S13076 1852 2 SI MM NOT_NAMED 1852-01-07 12:00:00 NR -27.7199 48.3120 main 316 316 __________P___ -1 -27.7199 48.3120 7 4 171
1852001S13076 1852 2 SI MM NOT_NAMED 1852-01-07 15:00:00 NR -27.8712 48.3513 main 340 340 __________P___ -1 -27.8712 48.3513 7 3 164
1852001S13076 1852 2 SI MM NOT_NAMED 1852-01-07 18:00:00 NR -28.0000 48.4000 main 350 350 __________O___ -1 -28.0000 48.4000 7 3 162
1852001S13076 1852 2 SI MM NOT_NAMED 1852-01-07 21:00:00 NR -28.1369 48.4501 main 365 365 __________P___ -1 -28.1369 48.4501 7 3 163
1852001S13076 1852 2 SI MM NOT_NAMED 1852-01-08 00:00:00 NR -28.2851 48.5001 main 385 385 __________P___ -1 -28.2851 48.5001 7 3 164
1852001S13076 1852 2 SI MM NOT_NAMED 1852-01-08 03:00:00 NR -28.4407 48.5500 main 399 399 __________P___ -1 -28.4407 48.5500 7 3 165
1852001S13076 1852 2 SI MM NOT_NAMED 1852-01-08 06:00:00 NR -28.6000 48.6000 main 419 __________O___ -1 -28.6000 48.6000 7 3 168

About IBTrACS Database

This database is a web-friendly format of International Best Track Archive for Climate Stewardship (IBTrACS), a global best track data archive curated by NOAA dating back to 1842.

Updated: 2021-10-21